Time;durP1;ratioP1;P1;durP2;ratioP2;P2;SDS_P1;SDS_P2;PMS_P1;PMS_P2;Temp;Humidity;BMP_temperature;BMP_pressure;BME280_temperature;BME280_humidity;BME280_pressure;Samples;Min_cycle;Max_cycle;Signal;HPM_P1;HPM_P2
2022/01/16 00:00:20;;;;;;;61.25;27.75;;;;;;;-0.44;100.00;102210.69;4988723;28;20069;-85
2022/01/16 00:05:28;;;;;;;58.08;26.88;;;;;;;-0.58;100.00;102252.31;4986483;28;20034;-85
2022/01/16 00:07:54;;;;;;;57.30;26.10;;;;;;;-0.64;100.00;102241.72;4988737;28;20045;-85
2022/01/16 00:10:21;;;;;;;58.60;27.90;;;;;;;-0.63;100.00;102248.72;4988678;28;20026;-85
2022/01/16 00:12:48;;;;;;;55.40;26.52;;;;;;;-0.62;100.00;102253.09;4989620;28;20038;-85
2022/01/16 00:15:18;;;;;;;61.53;25.55;;;;;;;-0.64;100.00;102242.59;4986200;28;20110;-85
2022/01/16 00:18:21;;;;;;;62.53;27.50;;;;;;;-0.62;100.00;102250.50;4989667;28;20029;-85
2022/01/16 00:20:36;;;;;;;59.25;27.30;;;;;;;-0.63;100.00;102244.34;4985827;28;20037;-85
2022/01/16 00:23:05;;;;;;;64.15;28.52;;;;;;;-0.61;100.00;102245.28;4988664;28;20018;-85
2022/01/16 00:25:30;;;;;;;61.92;27.77;;;;;;;-0.61;100.00;102244.41;4988347;28;20112;-85
2022/01/16 00:27:55;;;;;;;64.13;27.48;;;;;;;-0.62;100.00;102240.91;4988909;28;20561;-85
2022/01/16 00:30:20;;;;;;;59.97;26.83;;;;;;;-0.58;100.00;102227.03;4989306;28;20034;-85
2022/01/16 00:32:46;;;;;;;67.32;29.05;;;;;;;-0.57;100.00;102215.72;4989055;28;20477;-85
2022/01/16 00:35:12;;;;;;;61.80;28.10;;;;;;;-0.51;100.00;102228.88;4970273;28;20064;-85
2022/01/16 00:37:41;;;;;;;61.35;28.08;;;;;;;-0.48;100.00;102237.66;4989668;28;20243;-85
2022/01/16 00:40:10;;;;;;;59.67;27.13;;;;;;;-0.45;100.00;102241.19;4971607;28;20023;-86
2022/01/16 00:42:36;;;;;;;61.85;27.42;;;;;;;-0.44;100.00;102235.09;4989025;28;20037;-85
2022/01/16 00:45:02;;;;;;;63.20;27.52;;;;;;;-0.38;100.00;102234.31;4984518;28;20385;-85
2022/01/16 00:47:28;;;;;;;59.65;27.20;;;;;;;-0.40;100.00;102236.03;4987389;28;20035;-86
2022/01/16 00:49:53;;;;;;;59.83;27.42;;;;;;;-0.40;100.00;102218.59;4979367;28;20060;-86
2022/01/16 00:52:19;;;;;;;56.60;27.63;;;;;;;-0.40;100.00;102220.34;4989083;28;20035;-85
2022/01/16 00:54:44;;;;;;;62.90;28.40;;;;;;;-0.37;100.00;102238.72;4986371;28;20030;-86
2022/01/16 00:57:10;;;;;;;65.70;26.85;;;;;;;-0.38;100.00;102210.75;4987228;28;20135;-85
2022/01/16 00:59:35;;;;;;;60.22;26.63;;;;;;;-0.37;100.00;102205.59;4981517;28;20076;-85
2022/01/16 01:02:00;;;;;;;55.53;26.17;;;;;;;-0.39;100.00;102188.09;4988402;28;20029;-85
2022/01/16 01:04:26;;;;;;;55.53;26.55;;;;;;;-0.38;100.00;102198.56;4986100;28;20062;-85
2022/01/16 01:06:52;;;;;;;57.28;27.15;;;;;;;-0.36;100.00;102201.22;4987883;28;20022;-85
2022/01/16 01:09:18;;;;;;;61.65;28.35;;;;;;;-0.37;100.00;102196.84;4988395;28;20026;-85
2022/01/16 01:11:45;;;;;;;60.88;28.83;;;;;;;-0.38;100.00;102197.69;4988436;28;20110;-85
2022/01/16 01:14:19;;;;;;;58.95;27.95;;;;;;;-0.34;100.00;102205.59;4986718;28;20065;-85
2022/01/16 01:16:57;;;;;;;64.68;28.23;;;;;;;-0.35;100.00;102209.09;4952135;28;20031;-85
2022/01/16 01:19:27;;;;;;;60.10;27.30;;;;;;;-0.33;100.00;102196.06;4988233;28;20050;-85
2022/01/16 01:21:53;;;;;;;63.05;28.20;;;;;;;-0.34;100.00;102205.59;4985512;28;20392;-85
2022/01/16 01:24:19;;;;;;;57.70;27.02;;;;;;;-0.34;100.00;102189.91;4965198;28;20037;-85
2022/01/16 01:26:52;;;;;;;62.30;28.10;;;;;;;-0.40;100.00;102195.06;4975521;28;20073;-85
2022/01/16 01:29:20;;;;;;;62.60;27.90;;;;;;;-0.41;100.00;102203.78;4986211;28;20109;-85
2022/01/16 01:31:45;;;;;;;57.30;27.55;;;;;;;-0.42;100.00;102202.00;4988320;28;20520;-85
2022/01/16 01:34:10;;;;;;;62.67;27.98;;;;;;;-0.40;100.00;102186.34;4985372;28;20133;-85
2022/01/16 01:36:36;;;;;;;53.10;26.98;;;;;;;-0.38;100.00;102145.38;4988620;28;20113;-85
2022/01/16 01:39:01;;;;;;;62.25;27.73;;;;;;;-0.45;100.00;102102.56;4988095;28;20033;-85
2022/01/16 01:41:29;;;;;;;61.92;29.17;;;;;;;-0.44;100.00;102113.91;4988696;28;20420;-86
2022/01/16 01:52:06;;;;;;;66.85;28.80;;;;;;;-0.47;100.00;102143.50;4980811;28;20042;-86
2022/01/16 01:54:32;;;;;;;62.85;28.00;;;;;;;-0.48;100.00;102164.41;4985502;28;20030;-85
2022/01/16 01:56:58;;;;;;;64.47;27.98;;;;;;;-0.50;100.00;102172.25;4987901;28;20085;-85
2022/01/16 01:59:23;;;;;;;65.93;27.35;;;;;;;-0.53;100.00;102191.38;4988113;28;20057;-85
2022/01/16 02:01:49;;;;;;;63.03;28.02;;;;;;;-0.59;100.00;102199.09;4987748;28;20092;-85
2022/01/16 02:04:14;;;;;;;62.50;27.60;;;;;;;-0.67;100.00;102192.88;4985357;28;20136;-85
2022/01/16 02:06:39;;;;;;;66.45;29.38;;;;;;;-0.68;100.00;102192.84;4988379;28;20062;-85
2022/01/16 02:09:06;;;;;;;75.53;30.90;;;;;;;-0.74;100.00;102196.25;4968958;28;20042;-85
2022/01/16 02:11:33;;;;;;;73.55;30.27;;;;;;;-0.73;100.00;102197.13;4988460;28;20026;-85
2022/01/16 02:35:10;;;;;;;92.55;34.72;;;;;;;-0.91;100.00;102226.44;4986221;28;20045;-85
2022/01/16 02:37:36;;;;;;;98.10;37.17;;;;;;;-0.90;100.00;102230.81;4987922;28;20034;-85
2022/01/16 02:40:09;;;;;;;92.55;35.65;;;;;;;-0.93;100.00;102233.34;4986776;28;20384;-85
2022/01/16 02:42:39;;;;;;;;;;;;;;;-0.86;100.00;102225.66;4988565;28;20098;-85
2022/01/16 02:45:06;;;;;;;87.63;34.67;;;;;;;-0.88;100.00;102221.25;4985600;28;19913;-85
2022/01/16 02:47:33;;;;;;;102.07;36.72;;;;;;;-0.88;100.00;102200.34;4973961;28;20508;-85
2022/01/16 02:50:02;;;;;;;92.03;37.40;;;;;;;-0.94;100.00;102201.13;4967796;28;20117;-85
2022/01/16 02:52:28;;;;;;;97.72;38.53;;;;;;;-0.96;100.00;102192.38;4991923;28;20114;-85
2022/01/16 02:54:55;;;;;;;100.90;36.92;;;;;;;-0.89;100.00;102209.91;4988891;28;20364;-85
2022/01/16 02:57:21;;;;;;;102.65;38.63;;;;;;;-0.87;100.00;102202.13;4991248;28;20177;-86
2022/01/16 02:59:50;;;;;;;103.63;38.28;;;;;;;-0.86;100.00;102190.81;4991689;28;20065;-85
2022/01/16 03:02:18;;;;;;;103.80;39.22;;;;;;;-0.84;100.00;102181.22;4990989;28;20456;-85
2022/01/16 03:04:43;;;;;;;96.78;37.75;;;;;;;-0.86;100.00;102178.59;4988850;28;20034;-85
2022/01/16 03:07:09;;;;;;;102.43;39.78;;;;;;;-0.86;100.00;102170.75;4987988;28;20076;-85
2022/01/16 03:12:09;;;;;;;101.25;39.70;;;;;;;-0.78;100.00;102157.81;4990739;28;20043;-85
2022/01/16 03:14:34;;;;;;;99.00;39.22;;;;;;;-0.73;100.00;102153.56;4989338;28;20499;-85
2022/01/16 03:16:59;;;;;;;111.90;40.70;;;;;;;-0.70;100.00;102164.06;4990118;28;20030;-85
2022/01/16 03:22:09;;;;;;;;;;;;;;;-0.61;100.00;102152.88;4990173;28;20037;-85
2022/01/16 03:24:37;;;;;;;100.30;39.40;;;;;;;-0.62;100.00;102151.13;4988523;28;19917;-85
2022/01/16 03:27:07;;;;;;;108.80;40.60;;;;;;;-0.57;100.00;102141.59;4989997;28;20030;-85
2022/01/16 03:29:32;;;;;;;101.28;40.95;;;;;;;-0.55;100.00;102145.13;4991092;28;20037;-85
2022/01/16 03:32:00;;;;;;;104.05;40.30;;;;;;;-0.52;100.00;102153.88;4989887;28;20388;-85
2022/01/16 03:34:25;;;;;;;90.93;39.63;;;;;;;-0.51;100.00;102145.19;4986749;28;20037;-85
2022/01/16 03:36:51;;;;;;;93.82;41.55;;;;;;;-0.49;100.00;102149.59;4987689;28;20034;-85
2022/01/16 03:39:17;;;;;;;99.22;40.47;;;;;;;-0.47;100.00;102143.50;4990537;28;20642;-86
2022/01/16 03:41:42;;;;;;;92.78;39.88;;;;;;;-0.45;100.00;102139.19;4990804;28;20207;-85
2022/01/16 03:44:08;;;;;;;96.28;41.72;;;;;;;-0.44;100.00;102135.69;4987167;28;20030;-85
2022/01/16 03:46:38;;;;;;;94.93;40.85;;;;;;;-0.42;100.00;102148.78;4989527;28;20030;-85
2022/01/16 03:49:15;;;;;;;98.97;42.63;;;;;;;-0.42;100.00;102139.22;4990062;28;20106;-85
2022/01/16 03:51:42;;;;;;;105.30;42.20;;;;;;;-0.37;100.00;102147.16;4989930;28;20033;-85
2022/01/16 03:54:11;;;;;;;101.07;42.90;;;;;;;-0.36;100.00;102149.78;4987689;28;20034;-85
2022/01/16 03:56:36;;;;;;;92.07;41.15;;;;;;;-0.33;100.00;102146.34;4989242;28;20030;-85
2022/01/16 03:59:03;;;;;;;97.32;42.33;;;;;;;-0.32;100.00;102135.00;4981499;28;20065;-85
2022/01/16 04:01:29;;;;;;;95.63;41.92;;;;;;;-0.29;100.00;102143.78;4990106;28;20027;-84
2022/01/16 04:03:55;;;;;;;89.03;40.30;;;;;;;-0.30;100.00;102136.78;4987430;28;20498;-85
2022/01/16 04:06:21;;;;;;;97.07;42.60;;;;;;;-0.31;100.00;102137.63;4989926;28;20050;-85
2022/01/16 04:08:48;;;;;;;96.00;42.65;;;;;;;-0.29;100.00;102145.53;4972462;28;20045;-85
2022/01/16 04:11:14;;;;;;;93.65;42.88;;;;;;;-0.24;100.00;102150.81;4990113;28;20336;-85
2022/01/16 04:13:48;;;;;;;97.82;42.83;;;;;;;-0.21;100.00;102156.06;4989073;28;20243;-85
2022/01/16 04:16:14;;;;;;;89.13;41.03;;;;;;;-0.24;100.00;102143.84;4988881;28;20101;-84
2022/01/16 04:18:39;;;;;;;101.13;42.72;;;;;;;-0.20;100.00;102153.50;4990035;28;20046;-85
2022/01/16 04:21:04;;;;;;;94.57;43.80;;;;;;;-0.18;100.00;102148.28;4988905;28;20034;-85
2022/01/16 04:23:30;;;;;;;96.10;43.13;;;;;;;-0.16;100.00;102144.84;4985585;28;20038;-85
2022/01/16 04:25:55;;;;;;;89.50;43.65;;;;;;;-0.22;100.00;102136.88;4989127;28;20039;-85
2022/01/16 04:28:24;;;;;;;90.78;42.08;;;;;;;-0.14;100.00;102145.72;4990112;28;20181;-85
2022/01/16 04:30:50;;;;;;;91.15;42.55;;;;;;;-0.13;100.00;102154.47;4989656;28;20361;-85
2022/01/16 04:33:15;;;;;;;89.07;42.45;;;;;;;-0.19;100.00;102121.25;4987878;28;20093;-85
2022/01/16 04:35:40;;;;;;;96.20;42.28;;;;;;;-0.11;100.00;102151.00;4989028;28;20089;-84
2022/01/16 04:38:05;;;;;;;88.93;42.45;;;;;;;-0.10;100.00;102149.28;4989512;28;20027;-85
2022/01/16 04:40:40;;;;;;;93.40;42.80;;;;;;;-0.12;100.00;102144.03;4990199;28;20371;-85
2022/01/16 04:45:49;;;;;;;87.97;43.80;;;;;;;-0.14;100.00;102134.38;4978925;28;20136;-85
2022/01/16 04:48:15;;;;;;;91.05;43.72;;;;;;;-0.14;100.00;102132.63;4984525;28;20026;-85
2022/01/16 04:50:40;;;;;;;92.95;44.72;;;;;;;-0.11;100.00;102134.44;4988790;28;20049;-85
2022/01/16 04:53:05;;;;;;;90.70;43.20;;;;;;;-0.09;100.00;102135.31;4986262;28;20026;-84
2022/01/16 04:55:30;;;;;;;95.07;44.40;;;;;;;-0.09;100.00;102132.69;4989527;28;20053;-85
2022/01/16 04:57:56;;;;;;;91.80;44.50;;;;;;;-0.09;100.00;102137.94;4989170;28;20042;-85
2022/01/16 05:00:21;;;;;;;90.10;42.63;;;;;;;-0.09;100.00;102133.56;4989112;28;20748;-84
2022/01/16 05:02:46;;;;;;;88.85;43.40;;;;;;;-0.08;100.00;102124.88;4986675;28;20116;-85
2022/01/16 05:05:12;;;;;;;84.28;41.72;;;;;;;-0.08;100.00;102135.38;4987756;28;20030;-85
2022/01/16 05:07:37;;;;;;;86.68;43.03;;;;;;;-0.10;100.00;102121.34;4989258;28;20030;-85
2022/01/16 05:10:03;;;;;;;88.97;43.70;;;;;;;-0.09;100.00;102125.72;4988455;28;20425;-85
2022/01/16 05:12:33;;;;;;;92.82;43.10;;;;;;;-0.08;100.00;102119.66;4988705;28;20034;-85
2022/01/16 05:17:44;;;;;;;90.75;43.90;;;;;;;-0.10;100.00;102110.88;4987877;28;20053;-85
2022/01/16 05:20:10;;;;;;;83.93;42.63;;;;;;;-0.07;100.00;102124.03;4987655;28;20026;-85
2022/01/16 05:22:36;;;;;;;93.85;45.53;;;;;;;-0.07;100.00;102121.41;4987147;28;20062;-85
2022/01/16 05:25:07;;;;;;;95.22;46.83;;;;;;;-0.06;100.00;102123.16;4987897;28;20018;-85
2022/01/16 05:27:32;;;;;;;96.53;46.22;;;;;;;-0.06;100.00;102114.44;4969465;28;20061;-85
2022/01/16 05:29:58;;;;;;;94.72;45.60;;;;;;;-0.08;100.00;102108.31;4971746;28;20073;-85
2022/01/16 05:32:23;;;;;;;96.07;46.83;;;;;;;-0.04;100.00;102111.00;4986606;28;20029;-85
2022/01/16 05:34:48;;;;;;;96.45;47.15;;;;;;;-0.03;100.00;102123.22;4986710;28;20404;-85
2022/01/16 05:37:13;;;;;;;96.18;46.63;;;;;;;-0.04;100.00;102116.22;4988233;28;20156;-85
2022/01/16 05:39:40;;;;;;;95.05;47.63;;;;;;;-0.01;100.00;102129.31;4989096;28;20028;-85
2022/01/16 05:42:07;;;;;;;103.78;47.38;;;;;;;0.01;100.00;102124.13;4988309;28;20030;-85
2022/01/16 05:44:32;;;;;;;99.78;48.42;;;;;;;-0.03;100.00;102120.59;4986912;28;20384;-85
2022/01/16 05:47:02;;;;;;;99.90;46.83;;;;;;;0.03;100.00;102127.63;4986979;28;20034;-85
2022/01/16 05:49:27;;;;;;;107.00;48.90;;;;;;;0.02;100.00;102131.13;4988702;28;20058;-85
2022/01/16 05:51:52;;;;;;;102.45;48.03;;;;;;;0.06;100.00;102138.16;4988161;28;20065;-85
2022/01/16 05:54:17;;;;;;;99.05;48.72;;;;;;;0.05;100.00;102135.53;4985576;28;20044;-85
2022/01/16 05:56:43;;;;;;;103.25;49.47;;;;;;;0.10;100.00;102129.47;4988631;28;20069;-85
2022/01/16 05:59:08;;;;;;;103.22;49.50;;;;;;;0.14;100.00;102136.50;4987991;28;20480;-85
2022/01/16 06:01:35;;;;;;;99.78;49.15;;;;;;;0.18;100.00;102137.44;4987933;28;20113;-85
2022/01/16 06:04:00;;;;;;;104.07;50.20;;;;;;;0.20;100.00;102131.34;4985237;28;20038;-84
2022/01/16 06:06:25;;;;;;;106.72;50.25;;;;;;;0.21;100.00;102132.25;4988192;28;20034;-85
2022/01/16 06:08:50;;;;;;;109.40;51.63;;;;;;;0.23;100.00;102133.13;4988522;28;20038;-85
2022/01/16 06:11:16;;;;;;;108.18;51.53;;;;;;;0.26;100.00;102130.56;4986899;28;20045;-85
2022/01/16 06:13:41;;;;;;;104.78;51.47;;;;;;;0.29;100.00;102132.31;4984837;28;20088;-86
2022/01/16 06:16:08;;;;;;;111.00;52.35;;;;;;;0.33;100.00;102140.22;4986026;28;20121;-86
2022/01/16 06:18:33;;;;;;;110.78;52.70;;;;;;;0.38;100.00;102137.69;4988616;28;20041;-86
2022/01/16 06:20:58;;;;;;;109.55;53.00;;;;;;;0.38;100.00;102130.69;4977474;28;20035;-86
2022/01/16 06:23:23;;;;;;;113.03;52.67;;;;;;;0.39;100.00;102121.97;4978300;28;20029;-86
2022/01/16 06:25:54;;;;;;;110.18;52.45;;;;;;;0.49;100.00;102130.81;4989513;28;20031;-86
2022/01/16 06:28:21;;;;;;;113.28;54.55;;;;;;;0.53;100.00;102131.72;4973499;28;20035;-86
2022/01/16 06:30:46;;;;;;;111.85;52.60;;;;;;;0.53;100.00;102126.47;4976566;28;20046;-86
2022/01/16 06:33:11;;;;;;;109.07;51.80;;;;;;;0.52;100.00;102133.47;4989285;28;20105;-86
2022/01/16 06:35:36;;;;;;;108.22;53.85;;;;;;;0.60;100.00;102131.81;4992631;28;20025;-85
2022/01/16 06:38:02;;;;;;;116.20;50.50;;;;;;;0.64;100.00;102140.59;4990695;28;20037;-86
2022/01/16 06:40:27;;;;;;;114.80;53.00;;;;;;;0.67;100.00;102154.59;4992883;28;20536;-86
2022/01/16 06:42:52;;;;;;;113.43;53.08;;;;;;;0.71;100.00;102155.50;4990166;28;20034;-86
2022/01/16 06:45:18;;;;;;;113.05;52.95;;;;;;;0.74;100.00;102160.78;4991751;28;20023;-86
2022/01/16 06:47:43;;;;;;;113.18;53.35;;;;;;;0.74;100.00;102156.41;4992071;28;20101;-87
2022/01/16 06:50:09;;;;;;;115.45;50.63;;;;;;;0.78;100.00;102161.69;4991770;28;20373;-86
2022/01/16 06:52:35;;;;;;;107.07;51.40;;;;;;;0.80;100.00;102170.47;4990530;28;20042;-86
2022/01/16 06:55:00;;;;;;;111.95;51.10;;;;;;;0.81;100.00;102159.13;4986540;28;20110;-86
2022/01/16 06:57:26;;;;;;;106.68;52.53;;;;;;;0.82;100.00;102163.47;4972804;28;20043;-86
2022/01/16 06:59:51;;;;;;;106.15;50.83;;;;;;;0.84;100.00;102177.50;4972445;28;20392;-86
2022/01/16 07:02:17;;;;;;;99.93;50.33;;;;;;;0.85;100.00;102169.63;4988483;28;20029;-86
2022/01/16 07:04:46;;;;;;;103.68;50.88;;;;;;;0.87;100.00;102174.88;4990596;28;20531;-86
2022/01/16 07:07:11;;;;;;;108.90;50.13;;;;;;;0.87;100.00;102165.28;4990429;28;20128;-86
2022/01/16 07:09:38;;;;;;;104.97;48.92;;;;;;;0.88;100.00;102168.78;4992243;28;20452;-86
2022/01/16 07:12:04;;;;;;;104.60;50.28;;;;;;;0.83;100.00;102173.97;4984174;28;20029;-86
2022/01/16 07:14:29;;;;;;;100.82;49.28;;;;;;;0.89;100.00;102181.91;4987872;28;20038;-87
2022/01/16 07:16:54;;;;;;;104.13;48.20;;;;;;;0.93;100.00;102194.19;4990279;28;20065;-85
2022/01/16 07:19:19;;;;;;;103.53;48.40;;;;;;;0.93;100.00;102199.44;4991378;28;20041;-84
2022/01/16 07:21:45;;;;;;;107.82;50.05;;;;;;;0.91;100.00;102203.75;4991519;28;20043;-84
2022/01/16 07:24:15;;;;;;;104.97;49.17;;;;;;;0.97;100.00;102209.09;4988061;28;20030;-84
2022/01/16 07:26:42;;;;;;;95.43;46.85;;;;;;;1.03;100.00;102221.38;4991229;28;20080;-85
2022/01/16 07:29:07;;;;;;;101.22;48.03;;;;;;;1.05;100.00;102218.78;4990371;28;20046;-85
2022/01/16 07:31:33;;;;;;;100.85;49.22;;;;;;;1.07;100.00;102219.66;4990127;28;20022;-85
2022/01/16 07:33:59;;;;;;;94.50;46.22;;;;;;;1.08;100.00;102224.03;4972639;28;20026;-84
2022/01/16 07:36:24;;;;;;;98.32;47.45;;;;;;;1.14;100.00;102226.75;4991110;28;20025;-84
2022/01/16 07:38:49;;;;;;;91.32;45.42;;;;;;;1.15;100.00;102238.97;4991076;28;20030;-85
2022/01/16 07:41:14;;;;;;;94.25;45.28;;;;;;;1.13;100.00;102243.31;4972992;28;20487;-84
2022/01/16 07:43:39;;;;;;;87.10;43.13;;;;;;;1.14;100.00;102221.50;4987737;28;20023;-84
2022/01/16 07:46:05;;;;;;;87.95;44.40;;;;;;;1.25;100.00;102227.69;4990075;28;20062;-87
2022/01/16 07:48:30;;;;;;;87.35;43.05;;;;;;;1.17;100.00;102221.50;4973394;28;20033;-84
2022/01/16 07:50:55;;;;;;;87.93;45.08;;;;;;;1.26;100.00;102245.22;4990081;28;20022;-84
2022/01/16 07:53:20;;;;;;;87.20;43.78;;;;;;;1.22;100.00;102244.31;4988211;28;20301;-85
2022/01/16 07:55:46;;;;;;;86.95;43.35;;;;;;;1.27;100.00;102246.97;4990592;28;20369;-86
2022/01/16 07:58:11;;;;;;;90.40;42.45;;;;;;;1.34;100.00;102263.63;4989771;28;20062;-86
2022/01/16 08:00:37;;;;;;;79.57;39.60;;;;;;;1.34;100.00;102253.13;4990819;28;20482;-85
2022/01/16 08:03:02;;;;;;;83.20;41.50;;;;;;;1.39;100.00;102261.97;4989388;28;20034;-85
2022/01/16 08:05:28;;;;;;;84.60;40.67;;;;;;;1.43;100.00;102262.00;4991194;28;20233;-83
2022/01/16 08:07:54;;;;;;;81.72;42.22;;;;;;;1.41;100.00;102249.72;4993814;28;20420;-90
2022/01/16 08:10:19;;;;;;;82.93;40.65;;;;;;;1.49;100.00;102266.41;4992961;28;20026;-89
2022/01/16 08:12:45;;;;;;;81.68;40.05;;;;;;;1.52;100.00;102268.19;4990255;28;20037;-90
2022/01/16 08:15:10;;;;;;;86.63;41.40;;;;;;;1.51;100.00;102251.59;4989670;28;20398;-87
2022/01/16 08:17:36;;;;;;;78.18;40.42;;;;;;;1.54;100.00;102259.47;4990095;28;20030;-87
2022/01/16 08:20:04;;;;;;;81.45;41.45;;;;;;;1.56;100.00;102255.13;4989512;28;20034;-86
2022/01/16 08:22:29;;;;;;;82.00;40.33;;;;;;;1.55;100.00;102248.13;4988261;28;22011;-89
2022/01/16 08:24:54;;;;;;;84.32;40.88;;;;;;;1.58;100.00;102245.50;4969195;28;20047;-86
2022/01/16 08:27:20;;;;;;;78.55;39.63;;;;;;;1.60;100.00;102242.91;4970164;28;20034;-89
2022/01/16 08:29:45;;;;;;;89.60;39.70;;;;;;;1.64;100.00;102247.31;4953120;28;20385;-85
2022/01/16 08:32:10;;;;;;;82.28;40.55;;;;;;;1.65;100.00;102241.19;4985964;28;20042;-87
2022/01/16 08:34:36;;;;;;;84.25;41.10;;;;;;;1.66;100.00;102240.31;4989168;28;20029;-89
2022/01/16 08:37:01;;;;;;;88.35;41.35;;;;;;;1.70;100.00;102248.22;4973151;28;20374;-90
2022/01/16 08:39:27;;;;;;;92.32;43.42;;;;;;;1.70;100.00;102247.34;4991460;28;20065;-86
2022/01/16 08:41:52;;;;;;;82.82;40.97;;;;;;;1.71;100.00;102238.59;4972916;28;20029;-80
2022/01/16 08:44:19;;;;;;;89.13;41.95;;;;;;;1.73;100.00;102252.63;4970670;28;20049;-81
2022/01/16 08:46:44;;;;;;;84.95;41.03;;;;;;;1.78;100.00;102252.66;4988774;28;20026;-81
2022/01/16 08:49:10;;;;;;;83.28;39.85;;;;;;;1.75;100.00;102248.25;4989037;28;20037;-81
2022/01/16 08:51:35;;;;;;;83.95;40.40;;;;;;;1.82;100.00;102257.94;4989327;28;20019;-81
2022/01/16 08:54:00;;;;;;;80.38;37.28;;;;;;;1.83;100.00;102259.69;4988065;28;20080;-81
2022/01/16 08:56:25;;;;;;;83.13;39.65;;;;;;;1.88;100.00;102263.28;4989035;28;20032;-81
2022/01/16 08:58:51;;;;;;;81.50;39.03;;;;;;;1.89;100.00;102264.16;4989706;28;20046;-81
2022/01/16 09:01:16;;;;;;;84.40;39.55;;;;;;;1.93;100.00;102265.94;4970392;28;20036;-81
2022/01/16 09:03:42;;;;;;;85.32;38.55;;;;;;;1.96;100.00;102268.56;4986621;28;20022;-81
2022/01/16 09:06:07;;;;;;;85.22;38.13;;;;;;;1.97;100.00;102263.34;4988685;28;20455;-80
2022/01/16 09:08:33;;;;;;;91.15;40.60;;;;;;;2.03;100.00;102274.75;4988744;28;20034;-81
2022/01/16 09:10:58;;;;;;;81.82;38.72;;;;;;;2.07;100.00;102284.41;4969913;28;20019;-81
2022/01/16 09:13:23;;;;;;;87.85;39.80;;;;;;;2.08;100.00;102283.53;4978792;28;20530;-80
2022/01/16 09:15:50;;;;;;;89.10;42.53;;;;;;;2.08;100.00;102273.91;4983096;28;20026;-81
2022/01/16 09:18:17;;;;;;;82.13;39.03;;;;;;;2.17;100.00;102287.13;4987730;28;20420;-81
2022/01/16 09:20:43;;;;;;;91.63;42.15;;;;;;;2.22;100.00;102293.28;4987666;28;20057;-80
2022/01/16 09:23:10;;;;;;;80.57;39.85;;;;;;;2.29;100.00;102302.06;4981220;28;20074;-82
2022/01/16 09:25:36;;;;;;;86.15;40.97;;;;;;;2.29;100.00;102296.81;4974720;28;20053;-81
2022/01/16 09:28:02;;;;;;;92.28;41.58;;;;;;;2.37;100.00;102304.75;4987819;28;20091;-81
2022/01/16 09:30:28;;;;;;;85.47;40.47;;;;;;;2.40;100.00;102302.13;4981579;28;20041;-81
2022/01/16 09:32:54;;;;;;;91.07;41.25;;;;;;;2.42;100.00;102317.03;4980863;28;20018;-80
2022/01/16 09:35:19;;;;;;;83.35;39.55;;;;;;;2.43;100.00;102305.66;4987843;28;20049;-85
2022/01/16 09:37:45;;;;;;;91.05;41.13;;;;;;;2.47;100.00;102315.34;4988500;28;20027;-84
2022/01/16 09:40:13;;;;;;;92.40;41.17;;;;;;;2.48;100.00;102309.19;4987746;28;20069;-86
2022/01/16 09:42:39;;;;;;;95.20;42.20;;;;;;;2.57;100.00;102304.88;4985955;28;20117;-85
2022/01/16 09:45:08;;;;;;;97.10;42.42;;;;;;;2.59;100.00;102309.28;4987507;28;20041;-90
2022/01/16 09:47:33;;;;;;;97.13;42.28;;;;;;;2.66;100.00;102325.94;4971326;28;20153;-85
2022/01/16 09:49:59;;;;;;;99.18;44.45;;;;;;;2.66;100.00;102321.56;4986480;28;20121;-85
2022/01/16 09:52:24;;;;;;;104.70;42.35;;;;;;;2.67;100.00;102332.94;4986288;28;20038;-85
2022/01/16 09:54:50;;;;;;;109.57;42.33;;;;;;;2.68;100.00;102329.47;4987208;28;20026;-85
2022/01/16 09:57:16;;;;;;;99.78;43.67;;;;;;;2.67;100.00;102325.06;4987194;28;20373;-86
2022/01/16 09:59:44;;;;;;;103.78;42.65;;;;;;;2.70;100.00;102330.34;4987428;28;20369;-84
2022/01/16 10:02:09;;;;;;;107.35;42.75;;;;;;;2.70;100.00;102328.59;4984849;28;20101;-85
2022/01/16 10:04:38;;;;;;;109.63;44.22;;;;;;;2.78;100.00;102336.53;4988335;28;20137;-85
2022/01/16 10:07:09;;;;;;;106.55;44.40;;;;;;;2.82;100.00;102337.44;4987282;28;20018;-85
2022/01/16 10:09:37;;;;;;;104.10;44.95;;;;;;;2.82;100.00;102340.94;4987958;28;20507;-85
2022/01/16 10:12:05;;;;;;;106.45;42.92;;;;;;;2.84;100.00;102354.94;4983965;28;20023;-84
2022/01/16 10:14:37;;;;;;;96.43;42.47;;;;;;;2.87;100.00;102351.47;4978520;28;20033;-84
2022/01/16 10:17:17;;;;;;;97.80;43.80;;;;;;;2.85;100.00;102356.72;4987497;28;20026;-84
2022/01/16 10:19:42;;;;;;;109.32;43.33;;;;;;;2.89;100.00;102363.75;4987915;28;20109;-84
2022/01/16 10:22:13;;;;;;;106.63;43.25;;;;;;;2.90;100.00;102359.38;4984851;28;20105;-84
2022/01/16 10:24:40;;;;;;;93.07;41.00;;;;;;;2.93;100.00;102359.41;4974699;28;20026;-84
2022/01/16 10:27:08;;;;;;;103.38;40.63;;;;;;;2.99;100.00;102365.56;4987091;28;20062;-84
2022/01/16 10:29:53;;;;;;;94.05;39.85;;;;;;;3.03;100.00;102363.81;4987914;28;20030;-84
2022/01/16 10:32:23;;;;;;;97.18;41.00;;;;;;;3.08;100.00;102369.09;4983136;28;20031;-84
2022/01/16 10:34:54;;;;;;;100.90;40.67;;;;;;;2.99;100.00;102370.81;4988061;28;20041;-85
2022/01/16 10:37:30;;;;;;;99.80;39.47;;;;;;;3.09;100.00;102376.13;4986582;28;20043;-85
2022/01/16 10:40:17;;;;;;;100.68;40.05;;;;;;;3.16;100.00;102372.66;4987752;28;20026;-84
2022/01/16 10:42:52;;;;;;;99.47;39.20;;;;;;;3.14;100.00;102383.19;4985586;28;20088;-84
2022/01/16 10:45:22;;;;;;;98.25;39.70;;;;;;;3.04;100.00;102376.09;4980027;28;20026;-84
2022/01/16 10:47:54;;;;;;;97.22;38.10;;;;;;;3.20;100.00;102387.56;4987860;28;20122;-84
2022/01/16 10:50:21;;;;;;;100.28;39.90;;;;;;;3.25;100.00;102380.56;4980218;28;20027;-84
2022/01/16 10:52:53;;;;;;;88.70;37.20;;;;;;;3.23;100.00;102377.06;4985007;28;20026;-84
2022/01/16 10:55:23;;;;;;;92.30;36.17;;;;;;;3.20;100.00;102379.69;4987014;28;20112;-84
2022/01/16 10:57:50;;;;;;;100.45;38.40;;;;;;;3.21;100.00;102371.78;4987917;28;20450;-82
2022/01/16 11:00:17;;;;;;;96.90;41.30;;;;;;;3.32;100.00;102373.59;4986871;28;20109;-83
2022/01/16 11:02:45;;;;;;;92.78;37.83;;;;;;;3.50;100.00;102376.28;4985687;28;20022;-83
2022/01/16 11:05:13;;;;;;;85.15;35.75;;;;;;;3.57;100.00;102372.78;4988509;28;20069;-83
2022/01/16 11:07:39;;;;;;;87.80;36.33;;;;;;;3.61;100.00;102373.69;4989592;28;20030;-83
2022/01/16 11:10:30;;;;;;;89.85;37.17;;;;;;;3.71;100.00;102384.22;4983206;28;20220;-83
2022/01/16 11:12:58;;;;;;;76.05;34.92;;;;;;;3.71;100.00;102386.84;4989076;28;20035;-83
2022/01/16 11:15:24;;;;;;;83.20;37.28;;;;;;;3.80;100.00;102379.84;4990801;28;20103;-82
2022/01/16 11:17:50;;;;;;;82.97;36.00;;;;;;;3.82;99.87;102386.88;4991752;28;20096;-83
2022/01/16 11:20:18;;;;;;;74.93;33.13;;;;;;;3.73;99.62;102387.75;4990341;28;20030;-83
2022/01/16 11:23:04;;;;;;;79.25;34.38;;;;;;;3.68;100.00;102386.88;4989907;28;20104;-83
2022/01/16 11:25:34;;;;;;;77.03;33.90;;;;;;;3.61;100.00;102397.38;4991306;28;20499;-83
2022/01/16 11:28:12;;;;;;;78.72;33.90;;;;;;;3.56;100.00;102389.47;4982701;28;20066;-82
2022/01/16 11:30:43;;;;;;;75.65;31.77;;;;;;;3.55;100.00;102381.53;4981795;28;20077;-84
2022/01/16 11:33:09;;;;;;;72.78;33.00;;;;;;;3.45;100.00;102392.06;4983794;28;20428;-83
2022/01/16 11:35:41;;;;;;;81.88;35.28;;;;;;;3.45;100.00;102384.16;4987390;28;20072;-81
2022/01/16 11:38:07;;;;;;;79.85;34.70;;;;;;;3.47;100.00;102394.72;4979888;28;20045;-81
2022/01/16 11:40:46;;;;;;;77.55;33.35;;;;;;;3.45;100.00;102385.91;4984341;28;20026;-82
2022/01/16 11:43:20;;;;;;;80.00;34.30;;;;;;;3.49;100.00;102388.56;4990398;28;20034;-81
2022/01/16 11:46:16;;;;;;;78.20;33.35;;;;;;;3.56;100.00;102385.97;4971839;28;20121;-81